Time;durP1;ratioP1;P1;durP2;ratioP2;P2;SDS_P1;SDS_P2;PMS_P1;PMS_P2;Temp;Humidity;BMP_temperature;BMP_pressure;BME280_temperature;BME280_humidity;BME280_pressure;Samples;Min_cycle;Max_cycle;Signal;HPM_P1;HPM_P2
2022/09/05 00:00:21;;;;;;;4.15;3.67;;;20.40;99.90;;;;;;2568215;23;20029;-70
2022/09/05 00:01:59;;;;;;;4.25;3.88;;;20.40;99.90;;;;;;2568634;23;20054;-70
2022/09/05 00:03:28;;;;;;;4.40;3.95;;;20.30;99.90;;;;;;2567728;23;20444;-70
2022/09/05 00:04:37;;;;;;;3.58;3.28;;;20.30;99.90;;;;;;2568437;23;20425;-70
2022/09/05 00:05:49;;;;;;;4.47;4.07;;;20.30;99.90;;;;;;2567915;23;20001;-70
2022/09/05 00:06:58;;;;;;;4.28;3.90;;;20.30;99.90;;;;;;2568355;23;20062;-70
2022/09/05 00:08:27;;;;;;;6.93;3.78;;;20.40;99.90;;;;;;2568274;23;20004;-70
2022/09/05 00:09:49;;;;;;;4.05;3.75;;;20.30;99.90;;;;;;2556972;23;20004;-70
2022/09/05 00:11:18;;;;;;;4.70;4.25;;;20.30;99.90;;;;;;2568302;23;19996;-70
2022/09/05 00:12:18;;;;;;;5.18;4.05;;;20.30;99.90;;;;;;2568413;23;20304;-70
2022/09/05 00:13:26;;;;;;;7.88;3.90;;;20.30;99.90;;;;;;2567921;23;20028;-70
2022/09/05 00:14:51;;;;;;;4.43;3.75;;;20.30;99.90;;;;;;2568759;23;20012;-70
2022/09/05 00:15:54;;;;;;;3.88;3.47;;;20.30;99.90;;;;;;2568121;23;20048;-70
2022/09/05 00:17:01;;;;;;;4.95;4.10;;;20.30;99.90;;;;;;2567548;23;20005;-70
2022/09/05 00:18:21;;;;;;;4.55;4.00;;;20.30;99.90;;;;;;2568041;23;20429;-70
2022/09/05 00:19:31;;;;;;;;;;;20.30;99.90;;;;;;2568227;23;20000;-70
2022/09/05 00:20:52;;;;;;;5.45;3.90;;;20.20;99.90;;;;;;2567948;23;20324;-70
2022/09/05 00:22:25;;;;;;;5.35;4.53;;;20.30;99.90;;;;;;2568344;23;20001;-70
2022/09/05 00:23:57;;;;;;;4.25;3.78;;;20.30;99.90;;;;;;2517230;23;20153;-70
2022/09/05 00:25:25;;;;;;;4.10;3.70;;;20.30;99.90;;;;;;2518980;23;20012;-70
2022/09/05 00:26:34;;;;;;;4.30;3.85;;;20.30;99.90;;;;;;2547598;23;20025;-70
2022/09/05 00:27:56;;;;;;;4.80;4.15;;;20.30;99.90;;;;;;2556346;23;20413;-70
2022/09/05 00:29:16;;;;;;;4.63;4.18;;;20.30;99.90;;;;;;2567804;23;20008;-70
2022/09/05 00:30:19;;;;;;;5.53;4.40;;;20.30;99.90;;;;;;2555069;23;20422;-70
2022/09/05 00:31:37;;;;;;;4.40;4.10;;;20.30;99.90;;;;;;2555065;23;20080;-70
2022/09/05 00:32:56;;;;;;;5.75;3.85;;;20.30;99.90;;;;;;2567809;23;20000;-71
2022/09/05 00:34:15;;;;;;;5.47;3.30;;;20.30;99.90;;;;;;2567526;23;20035;-70
2022/09/05 00:35:34;;;;;;;4.47;4.07;;;20.30;99.90;;;;;;2567720;23;20085;-70
2022/09/05 00:36:46;;;;;;;3.83;3.42;;;20.30;99.90;;;;;;2567585;23;20001;-70
2022/09/05 00:37:48;;;;;;;3.78;3.40;;;20.30;99.90;;;;;;2567956;23;20104;-70
2022/09/05 00:38:59;;;;;;;3.70;3.40;;;20.30;99.90;;;;;;2567778;23;20001;-70
2022/09/05 00:40:24;;;;;;;4.43;4.03;;;20.30;99.90;;;;;;2567957;23;20019;-70
2022/09/05 00:41:26;;;;;;;5.05;4.30;;;20.30;99.90;;;;;;2567793;23;20017;-70
2022/09/05 00:42:27;;;;;;;6.00;4.30;;;20.30;99.90;;;;;;2567968;23;20011;-70
2022/09/05 00:43:40;;;;;;;5.50;4.22;;;20.30;99.90;;;;;;2567238;23;20001;-70
2022/09/05 00:44:54;;;;;;;4.28;3.88;;;20.30;99.90;;;;;;2567870;23;20020;-70
2022/09/05 00:46:14;;;;;;;4.35;4.03;;;20.30;99.90;;;;;;2567900;23;20005;-70
2022/09/05 00:47:46;;;;;;;4.15;3.75;;;20.30;99.90;;;;;;2567525;23;20075;-70
2022/09/05 00:49:10;;;;;;;4.75;4.25;;;20.30;99.90;;;;;;2567601;23;20325;-70
2022/09/05 00:50:26;;;;;;;5.68;3.95;;;20.30;99.90;;;;;;2567770;23;20119;-70
2022/09/05 00:51:39;;;;;;;5.00;4.53;;;20.30;99.90;;;;;;2567972;23;20071;-70
2022/09/05 00:53:05;;;;;;;4.85;4.45;;;20.30;99.90;;;;;;2567434;23;20040;-71
2022/09/05 00:54:19;;;;;;;4.85;4.20;;;20.30;99.90;;;;;;2568048;23;20016;-70
2022/09/05 00:55:45;;;;;;;7.03;4.68;;;20.30;99.90;;;;;;2554449;23;20626;-70
2022/09/05 00:56:57;;;;;;;5.38;4.43;;;20.30;99.90;;;;;;2559661;23;19997;-70
2022/09/05 00:58:23;;;;;;;5.43;4.38;;;20.30;99.90;;;;;;2567801;23;20032;-70
2022/09/05 00:59:46;;;;;;;4.97;3.90;;;20.30;99.90;;;;;;2567812;23;20004;-70
2022/09/05 01:00:59;;;;;;;4.18;3.78;;;20.30;99.90;;;;;;2516985;23;20010;-70
2022/09/05 01:02:13;;;;;;;4.47;3.90;;;20.30;99.90;;;;;;2567290;23;20009;-70
2022/09/05 01:03:33;;;;;;;6.95;4.43;;;20.30;99.90;;;;;;2567747;23;20017;-70
2022/09/05 01:04:39;;;;;;;;;;;20.40;99.90;;;;;;2568703;23;20004;-70
2022/09/05 01:05:39;;;;;;;5.35;4.60;;;20.20;99.90;;;;;;2567415;23;19900;-70
2022/09/05 01:07:01;;;;;;;7.93;5.82;;;20.30;99.90;;;;;;2568221;23;20011;-70
2022/09/05 01:08:24;;;;;;;7.07;4.35;;;20.30;99.90;;;;;;2568089;23;19997;-70
2022/09/05 01:10:02;;;;;;;7.22;5.40;;;20.30;99.90;;;;;;2567970;23;20004;-70
2022/09/05 01:11:31;;;;;;;4.90;4.50;;;20.30;99.90;;;;;;2567650;23;20261;-70
2022/09/05 01:13:00;;;;;;;6.00;4.75;;;20.30;99.90;;;;;;2567314;23;20009;-70
2022/09/05 01:14:33;;;;;;;8.88;4.68;;;20.30;99.90;;;;;;2567936;23;20033;-71
2022/09/05 01:15:45;;;;;;;6.50;4.90;;;20.20;99.90;;;;;;2567739;23;20011;-70
2022/09/05 01:17:20;;;;;;;6.65;4.75;;;20.20;99.90;;;;;;2567796;23;20054;-70
2022/09/05 01:18:39;;;;;;;6.03;4.88;;;20.20;99.90;;;;;;2555098;23;20445;-70
2022/09/05 01:20:11;;;;;;;8.60;5.03;;;20.20;99.90;;;;;;2554996;23;20015;-70
2022/09/05 01:21:23;;;;;;;6.20;5.07;;;20.20;99.90;;;;;;2561753;23;20004;-70
2022/09/05 01:23:07;;;;;;;5.82;5.07;;;20.20;99.90;;;;;;2554850;23;20080;-70
2022/09/05 01:24:32;;;;;;;5.40;4.88;;;20.20;99.90;;;;;;2564467;23;20047;-70
2022/09/05 01:25:32;;;;;;;6.07;4.93;;;20.20;99.90;;;;;;2567948;23;20019;-70
2022/09/05 01:26:39;;;;;;;5.85;4.65;;;20.20;99.90;;;;;;2567739;23;20031;-70
2022/09/05 01:28:14;;;;;;;9.10;5.30;;;20.20;99.90;;;;;;2568205;23;20004;-70
2022/09/05 01:29:42;;;;;;;6.63;4.93;;;20.20;99.90;;;;;;2568287;23;20420;-70
2022/09/05 01:31:06;;;;;;;5.72;4.93;;;20.20;99.90;;;;;;2568141;23;20091;-70
2022/09/05 01:32:15;;;;;;;7.03;5.10;;;20.20;99.90;;;;;;2567539;23;20004;-70
2022/09/05 01:33:27;;;;;;;9.35;4.88;;;20.20;99.90;;;;;;2567634;23;20001;-70
2022/09/05 01:34:52;;;;;;;6.38;4.63;;;20.20;99.90;;;;;;2567884;23;20001;-70
2022/09/05 01:36:07;;;;;;;5.32;4.65;;;20.20;99.90;;;;;;2567689;23;20009;-70
2022/09/05 01:37:37;;;;;;;5.55;4.90;;;20.20;99.90;;;;;;2554856;23;20012;-70
2022/09/05 01:38:57;;;;;;;7.25;5.03;;;20.20;99.90;;;;;;2561159;23;20055;-71
2022/09/05 01:40:19;;;;;;;7.23;5.30;;;20.20;99.90;;;;;;2567845;23;20456;-70
2022/09/05 01:41:52;;;;;;;5.18;4.57;;;20.20;99.90;;;;;;2567713;23;20224;-70
2022/09/05 01:43:13;;;;;;;5.32;4.25;;;20.20;99.90;;;;;;2567564;23;20414;-70
2022/09/05 01:44:20;;;;;;;5.15;4.60;;;20.20;99.90;;;;;;2568271;23;19997;-70
2022/09/05 01:45:30;;;;;;;5.18;4.68;;;20.20;99.90;;;;;;2568238;23;20051;-70
2022/09/05 01:47:07;;;;;;;4.85;4.35;;;20.30;99.90;;;;;;2567771;23;20008;-70
2022/09/05 01:48:29;;;;;;;5.00;4.30;;;20.30;99.90;;;;;;2567495;23;20004;-70
2022/09/05 01:49:52;;;;;;;5.10;4.50;;;20.20;99.90;;;;;;2567865;23;20008;-70
2022/09/05 01:51:10;;;;;;;5.20;4.45;;;20.30;99.90;;;;;;2567964;23;21012;-70
2022/09/05 01:52:30;;;;;;;6.72;4.57;;;20.20;99.90;;;;;;2567789;23;20080;-70
2022/09/05 01:53:49;;;;;;;5.20;4.13;;;20.30;99.90;;;;;;2567861;23;20004;-70
2022/09/05 01:55:15;;;;;;;4.30;3.90;;;20.20;99.90;;;;;;2568196;23;19996;-70
2022/09/05 01:56:49;;;;;;;8.25;4.30;;;20.20;99.90;;;;;;2567758;23;20504;-70
2022/09/05 01:58:08;;;;;;;5.72;4.50;;;20.30;99.90;;;;;;2567624;23;20409;-70
2022/09/05 01:59:30;;;;;;;6.72;4.45;;;20.30;99.90;;;;;;2567290;23;20019;-70
2022/09/05 02:00:57;;;;;;;5.18;4.53;;;20.20;99.90;;;;;;2567871;23;20004;-70
2022/09/05 02:02:29;;;;;;;4.32;3.92;;;20.30;99.90;;;;;;2546435;23;20012;-70
2022/09/05 02:03:32;;;;;;;4.22;3.80;;;20.20;99.90;;;;;;2566686;23;20032;-70
2022/09/05 02:05:33;;;;;;;5.10;4.03;;;20.20;99.90;;;;;;2567857;23;20286;-70
2022/09/05 02:06:41;;;;;;;4.68;4.03;;;20.30;99.90;;;;;;2517275;23;20394;-70
2022/09/05 02:08:06;;;;;;;6.70;4.60;;;20.20;99.90;;;;;;2517567;23;20014;-70
2022/09/05 02:09:25;;;;;;;4.80;3.92;;;20.20;99.90;;;;;;2517791;23;20011;-70
2022/09/05 02:10:47;;;;;;;3.80;3.50;;;20.20;99.90;;;;;;2517803;23;20593;-70
2022/09/05 02:12:06;;;;;;;4.50;4.10;;;20.20;99.90;;;;;;2519812;23;20218;-71
2022/09/05 02:13:38;;;;;;;3.88;3.58;;;20.20;99.90;;;;;;2567806;23;20001;-70
2022/09/05 02:14:43;;;;;;;4.32;3.92;;;20.20;99.90;;;;;;2569047;23;20004;-70
2022/09/05 02:16:03;;;;;;;6.97;3.92;;;20.20;99.90;;;;;;2555243;23;20019;-70
2022/09/05 02:17:34;;;;;;;4.45;4.05;;;20.30;99.90;;;;;;2559193;23;20013;-70
2022/09/05 02:19:11;;;;;;;5.15;3.72;;;20.20;99.90;;;;;;2568533;23;20787;-71
2022/09/05 02:20:20;;;;;;;4.20;3.80;;;20.30;99.90;;;;;;2553447;23;20008;-70
2022/09/05 02:21:38;;;;;;;4.78;3.80;;;20.30;99.90;;;;;;2568249;23;20687;-70
2022/09/05 02:22:52;;;;;;;4.18;3.78;;;20.30;99.90;;;;;;2568390;23;20009;-70
2022/09/05 02:24:21;;;;;;;4.55;4.15;;;20.30;99.90;;;;;;2568129;23;20485;-70
2022/09/05 02:25:37;;;;;;;3.90;3.60;;;20.30;99.90;;;;;;2568839;23;20035;-70
2022/09/05 02:26:51;;;;;;;4.25;3.88;;;20.30;99.90;;;;;;2568850;23;20005;-70
2022/09/05 02:28:05;;;;;;;6.13;3.60;;;20.30;99.90;;;;;;2568348;23;20004;-70
2022/09/05 02:29:12;;;;;;;4.38;3.97;;;20.40;99.90;;;;;;2568748;23;20368;-70
2022/09/05 02:30:17;;;;;;;4.35;3.53;;;20.40;99.90;;;;;;2568727;23;20008;-70
2022/09/05 02:31:42;;;;;;;4.43;4.03;;;20.40;99.90;;;;;;2568847;23;20028;-70
2022/09/05 02:33:04;;;;;;;4.40;3.42;;;20.40;99.90;;;;;;2568130;23;20000;-71
2022/09/05 02:34:18;;;;;;;4.75;3.50;;;20.40;99.90;;;;;;2568702;23;20009;-71
2022/09/05 02:35:34;;;;;;;3.92;3.50;;;20.40;99.90;;;;;;2568576;23;20005;-70
2022/09/05 02:36:44;;;;;;;3.80;3.40;;;20.50;99.90;;;;;;2568746;23;20429;-70
2022/09/05 02:37:50;;;;;;;3.90;3.53;;;20.50;99.90;;;;;;2568401;23;20055;-70
2022/09/05 02:39:12;;;;;;;3.33;3.05;;;20.50;99.90;;;;;;2555464;23;20028;-71
2022/09/05 02:40:19;;;;;;;3.47;3.17;;;20.50;99.90;;;;;;2560080;23;20012;-70
2022/09/05 02:41:43;;;;;;;6.35;3.95;;;20.50;99.90;;;;;;2568359;23;20051;-71
2022/09/05 02:42:56;;;;;;;3.70;3.40;;;20.60;99.90;;;;;;2568130;23;20012;-71
2022/09/05 02:43:59;;;;;;;3.70;3.40;;;20.60;99.90;;;;;;2568124;23;20004;-71
2022/09/05 02:45:37;;;;;;;5.22;3.63;;;20.60;99.90;;;;;;2568670;23;20310;-71
2022/09/05 02:47:06;;;;;;;3.67;3.10;;;20.60;99.90;;;;;;2555277;23;20013;-71
2022/09/05 02:48:33;;;;;;;4.00;3.38;;;20.60;99.90;;;;;;2557874;23;20012;-70
2022/09/05 02:49:39;;;;;;;4.07;3.70;;;20.60;99.90;;;;;;2568704;23;19993;-71
2022/09/05 02:50:43;;;;;;;3.70;2.90;;;20.70;99.90;;;;;;2555153;23;20001;-71
2022/09/05 02:52:00;;;;;;;5.38;3.47;;;20.70;99.90;;;;;;2555983;23;20084;-71
2022/09/05 02:53:01;;;;;;;3.67;2.60;;;20.70;99.90;;;;;;2568260;23;20038;-71
2022/09/05 02:54:24;;;;;;;3.53;3.22;;;20.70;99.90;;;;;;2568793;23;20325;-71
2022/09/05 02:55:36;;;;;;;3.83;3.10;;;20.70;99.90;;;;;;2568477;23;20005;-71
2022/09/05 02:57:13;;;;;;;3.33;3.03;;;20.70;99.90;;;;;;2568304;23;20696;-72
2022/09/05 02:58:43;;;;;;;3.47;3.15;;;20.70;99.90;;;;;;2568786;23;20005;-71
2022/09/05 03:00:19;;;;;;;3.10;2.80;;;20.70;99.90;;;;;;2518564;23;20015;-71
2022/09/05 03:01:43;;;;;;;4.80;3.30;;;20.70;99.90;;;;;;2563238;23;20023;-71
2022/09/05 03:03:11;;;;;;;3.55;3.20;;;20.70;99.90;;;;;;2568543;23;20004;-71
2022/09/05 03:04:30;;;;;;;3.40;3.15;;;20.70;99.90;;;;;;2568580;23;20015;-70
2022/09/05 03:05:35;;;;;;;4.47;2.95;;;20.70;99.90;;;;;;2568607;23;20000;-71
2022/09/05 03:06:49;;;;;;;3.60;3.30;;;20.80;99.90;;;;;;2568137;23;20437;-71
2022/09/05 03:08:04;;;;;;;4.20;3.55;;;20.80;99.90;;;;;;2568729;23;19996;-71
2022/09/05 03:09:39;;;;;;;3.30;3.00;;;20.80;99.90;;;;;;2568499;23;20484;-71
2022/09/05 03:10:59;;;;;;;2.88;2.67;;;20.80;99.90;;;;;;2568248;23;20586;-71
2022/09/05 03:12:21;;;;;;;4.53;3.45;;;20.80;99.90;;;;;;2568004;23;20000;-71
2022/09/05 03:13:54;;;;;;;5.22;3.22;;;20.80;99.90;;;;;;2567687;23;20010;-71
2022/09/05 03:15:37;;;;;;;4.32;2.88;;;20.80;99.90;;;;;;2568532;23;20005;-71
2022/09/05 03:17:16;;;;;;;3.45;3.15;;;20.80;99.90;;;;;;2568313;23;20488;-71
2022/09/05 03:18:38;;;;;;;3.00;2.65;;;20.80;99.90;;;;;;2547002;23;20095;-70
2022/09/05 03:19:53;;;;;;;3.40;2.92;;;20.90;99.90;;;;;;2568882;23;20008;-71
2022/09/05 03:21:31;;;;;;;2.83;2.63;;;20.90;99.90;;;;;;2568771;23;20083;-71
2022/09/05 03:22:32;;;;;;;3.53;2.50;;;20.80;99.90;;;;;;2568501;23;20036;-71
2022/09/05 03:24:18;;;;;;;3.17;2.90;;;20.80;99.90;;;;;;2568104;23;20473;-70
2022/09/05 03:25:22;;;;;;;3.92;3.47;;;20.80;99.90;;;;;;2568233;23;20001;-71
2022/09/05 03:26:41;;;;;;;3.50;3.20;;;20.90;99.90;;;;;;2567662;23;20011;-71
2022/09/05 03:28:02;;;;;;;3.90;3.25;;;20.90;99.90;;;;;;2568466;23;20048;-70
2022/09/05 03:29:36;;;;;;;3.40;3.05;;;20.90;99.90;;;;;;2568758;23;20337;-71
2022/09/05 03:31:08;;;;;;;3.78;3.17;;;20.90;99.90;;;;;;2568143;23;20337;-71
2022/09/05 03:32:33;;;;;;;4.63;3.63;;;20.90;99.90;;;;;;2568284;23;20004;-71
2022/09/05 03:33:54;;;;;;;3.20;2.70;;;20.90;99.90;;;;;;2567705;23;20036;-71
2022/09/05 03:35:01;;;;;;;3.95;3.55;;;20.90;99.90;;;;;;2567894;23;19993;-71
2022/09/05 03:36:22;;;;;;;3.47;3.17;;;20.90;99.90;;;;;;2568222;23;20001;-71
2022/09/05 03:38:08;;;;;;;4.88;3.65;;;20.90;99.90;;;;;;2568608;23;20008;-70
2022/09/05 03:39:28;;;;;;;3.85;3.10;;;20.90;99.90;;;;;;2521820;23;20077;-71
2022/09/05 03:40:50;;;;;;;4.13;3.40;;;20.80;99.90;;;;;;2568374;23;20016;-70
2022/09/05 03:42:15;;;;;;;3.60;3.30;;;20.80;99.90;;;;;;2567906;23;20076;-71
2022/09/05 03:43:36;;;;;;;3.70;3.40;;;20.80;99.90;;;;;;2567528;23;20004;-70
2022/09/05 03:45:18;;;;;;;4.00;3.58;;;20.80;99.90;;;;;;2568129;23;20332;-70
2022/09/05 03:46:40;;;;;;;4.63;3.40;;;20.80;99.90;;;;;;2526858;23;20411;-70
2022/09/05 03:48:16;;;;;;;3.30;3.10;;;20.80;99.90;;;;;;2567979;23;20348;-71
2022/09/05 03:49:39;;;;;;;3.75;3.38;;;20.80;99.90;;;;;;2567739;23;20035;-71
2022/09/05 03:50:59;;;;;;;3.53;3.22;;;20.70;99.90;;;;;;2567785;23;20011;-70
2022/09/05 03:52:08;;;;;;;3.67;3.08;;;20.80;99.90;;;;;;2568538;23;20058;-71
2022/09/05 03:53:26;;;;;;;4.00;3.58;;;20.80;99.90;;;;;;2554928;23;20059;-71
2022/09/05 03:54:41;;;;;;;5.03;3.13;;;20.80;99.90;;;;;;2542468;23;20013;-71
2022/09/05 03:55:53;;;;;;;3.38;3.08;;;20.70;99.90;;;;;;2545127;23;20002;-71
2022/09/05 03:57:37;;;;;;;4.50;3.40;;;20.70;99.90;;;;;;2555681;23;20005;-71
2022/09/05 03:59:04;;;;;;;4.55;3.08;;;20.70;99.90;;;;;;2555664;23;20009;-71
2022/09/05 04:00:19;;;;;;;5.40;3.15;;;20.70;99.90;;;;;;2556149;23;20020;-71
2022/09/05 04:01:20;;;;;;;3.30;3.03;;;20.60;99.90;;;;;;2555683;23;20088;-71
2022/09/05 04:02:27;;;;;;;3.97;3.42;;;20.60;99.90;;;;;;2555165;23;20009;-71
2022/09/05 04:03:38;;;;;;;3.53;3.20;;;20.60;99.90;;;;;;2555086;23;20001;-71
2022/09/05 04:04:42;;;;;;;3.72;3.30;;;20.60;99.90;;;;;;2555745;23;19993;-71
2022/09/05 04:05:49;;;;;;;3.40;2.67;;;20.60;99.90;;;;;;2555236;23;20005;-71
2022/09/05 04:07:01;;;;;;;3.10;2.88;;;20.60;99.90;;;;;;2555514;23;20027;-71
2022/09/05 04:08:24;;;;;;;4.75;2.95;;;20.60;99.90;;;;;;2555992;23;20004;-71
2022/09/05 04:09:30;;;;;;;3.47;3.17;;;20.60;99.90;;;;;;2555771;23;20547;-71
2022/09/05 04:10:40;;;;;;;3.20;3.00;;;20.60;99.90;;;;;;2555680;23;20009;-71
2022/09/05 04:11:46;;;;;;;5.00;2.85;;;20.60;99.90;;;;;;2555242;23;20092;-71
2022/09/05 04:12:58;;;;;;;3.88;3.15;;;20.50;99.90;;;;;;2555771;23;20012;-71
2022/09/05 04:14:06;;;;;;;3.72;2.80;;;20.50;99.90;;;;;;2555578;23;20001;-71
2022/09/05 04:15:21;;;;;;;3.50;3.05;;;20.50;99.90;;;;;;2555611;23;20084;-71
2022/09/05 04:16:29;;;;;;;4.55;3.00;;;20.50;99.90;;;;;;2555209;23;20464;-71
2022/09/05 04:17:36;;;;;;;3.00;2.80;;;20.50;99.90;;;;;;2555823;23;20033;-71
2022/09/05 04:18:42;;;;;;;4.30;2.85;;;20.50;99.90;;;;;;2555577;23;20080;-71
2022/09/05 04:19:50;;;;;;;3.55;3.20;;;20.50;99.90;;;;;;2555825;23;20055;-71
2022/09/05 04:21:00;;;;;;;3.05;2.72;;;20.50;99.90;;;;;;2555773;23;20432;-71
2022/09/05 04:22:19;;;;;;;;;;;20.50;99.90;;;;;;2556060;23;20037;-71
2022/09/05 04:23:44;;;;;;;3.47;2.60;;;20.40;99.90;;;;;;2555066;23;19904;-71
2022/09/05 04:24:58;;;;;;;3.60;2.80;;;20.40;99.90;;;;;;2555182;23;20036;-71
2022/09/05 04:26:14;;;;;;;3.88;3.22;;;20.40;99.90;;;;;;2555650;23;20497;-71
2022/09/05 04:27:20;;;;;;;3.55;2.53;;;20.40;99.90;;;;;;2556020;23;20059;-71
2022/09/05 04:29:01;;;;;;;3.03;2.83;;;20.40;99.90;;;;;;2555467;23;20009;-70
2022/09/05 04:30:14;;;;;;;3.08;2.80;;;20.40;99.90;;;;;;2555708;23;20025;-71
2022/09/05 04:31:40;;;;;;;3.42;2.67;;;20.40;99.90;;;;;;2555462;23;20009;-71
2022/09/05 04:33:03;;;;;;;2.97;2.67;;;20.40;99.90;;;;;;2555483;23;19999;-70
2022/09/05 04:34:07;;;;;;;2.72;2.50;;;20.40;99.90;;;;;;2555979;23;20032;-71
2022/09/05 04:35:51;;;;;;;2.90;2.70;;;20.40;99.90;;;;;;2555422;23;20005;-71
2022/09/05 04:37:04;;;;;;;3.13;2.83;;;20.40;99.90;;;;;;2555650;23;20093;-71
2022/09/05 04:38:16;;;;;;;2.90;2.60;;;20.40;99.90;;;;;;2555537;23;20525;-71
2022/09/05 04:39:17;;;;;;;3.33;2.80;;;20.40;99.90;;;;;;2555230;23;20467;-71
2022/09/05 04:40:36;;;;;;;3.33;2.58;;;20.40;99.90;;;;;;2555455;23;20406;-71
2022/09/05 04:41:49;;;;;;;2.80;2.60;;;20.40;99.90;;;;;;2555413;23;20023;-71
2022/09/05 04:42:50;;;;;;;2.78;2.58;;;20.40;99.90;;;;;;2555447;23;20448;-71
2022/09/05 04:44:00;;;;;;;3.15;2.78;;;20.30;99.90;;;;;;2555304;23;20012;-71
2022/09/05 04:45:14;;;;;;;3.25;2.83;;;20.40;99.90;;;;;;2555650;23;20012;-70
2022/09/05 04:46:39;;;;;;;3.30;3.10;;;20.30;99.90;;;;;;2554900;23;20005;-71
2022/09/05 04:47:51;;;;;;;5.28;3.20;;;20.40;99.90;;;;;;2555325;23;20000;-71
2022/09/05 04:49:03;;;;;;;3.33;3.05;;;20.30;99.90;;;;;;2555957;23;20001;-71
2022/09/05 04:50:17;;;;;;;3.67;3.28;;;20.30;99.90;;;;;;2555195;23;20005;-71
2022/09/05 04:51:36;;;;;;;3.50;3.20;;;20.20;99.90;;;;;;2555430;23;20005;-71
2022/09/05 04:52:48;;;;;;;2.78;2.53;;;20.30;99.90;;;;;;2561297;23;20008;-71
2022/09/05 04:54:10;;;;;;;2.97;2.72;;;20.20;99.90;;;;;;2567922;23;20011;-70
2022/09/05 04:55:39;;;;;;;4.47;2.85;;;20.20;99.90;;;;;;2567769;23;20008;-71
2022/09/05 04:56:44;;;;;;;4.05;3.30;;;20.10;99.90;;;;;;2556145;23;20121;-71
2022/09/05 04:58:06;;;;;;;2.85;2.65;;;20.10;99.90;;;;;;2567610;23;20012;-71
2022/09/05 04:59:30;;;;;;;3.90;3.10;;;20.10;99.90;;;;;;2567668;23;20071;-71
2022/09/05 05:00:50;;;;;;;3.42;2.90;;;20.10;99.90;;;;;;2568125;23;20376;-71
2022/09/05 05:01:59;;;;;;;3.25;2.97;;;20.10;99.90;;;;;;2568235;23;20011;-70
2022/09/05 05:03:10;;;;;;;3.63;2.72;;;20.00;99.90;;;;;;2566790;23;20013;-71
2022/09/05 05:04:16;;;;;;;3.20;2.90;;;20.00;99.90;;;;;;2554765;23;20008;-70
2022/09/05 05:05:26;;;;;;;3.88;3.22;;;20.00;99.90;;;;;;2555835;23;20032;-71
2022/09/05 05:06:31;;;;;;;3.28;2.83;;;20.00;99.90;;;;;;2567866;23;20457;-71
2022/09/05 05:07:46;;;;;;;4.18;3.05;;;20.00;99.90;;;;;;2554648;23;20005;-71
2022/09/05 05:09:18;;;;;;;3.47;3.15;;;20.00;99.90;;;;;;2557517;23;20008;-71
2022/09/05 05:10:45;;;;;;;4.57;2.63;;;19.90;99.90;;;;;;2567927;23;20001;-71
2022/09/05 05:11:46;;;;;;;3.75;3.00;;;19.90;99.90;;;;;;2551297;23;20386;-71
2022/09/05 05:12:54;;;;;;;3.55;3.08;;;19.90;99.90;;;;;;2567437;23;20005;-71
2022/09/05 05:14:00;;;;;;;3.42;3.13;;;19.90;99.90;;;;;;2553434;23;20012;-71
2022/09/05 05:15:08;;;;;;;2.88;2.67;;;19.90;99.90;;;;;;2555788;23;20035;-70
2022/09/05 05:16:28;;;;;;;3.10;2.90;;;19.80;99.90;;;;;;2567599;23;20084;-71
2022/09/05 05:17:39;;;;;;;2.83;2.63;;;19.80;99.90;;;;;;2567959;23;20019;-70
2022/09/05 05:18:51;;;;;;;3.40;3.00;;;19.80;99.90;;;;;;2567908;23;20038;-71
2022/09/05 05:20:16;;;;;;;4.57;3.25;;;19.80;99.90;;;;;;2567262;23;20012;-71
2022/09/05 05:21:22;;;;;;;3.88;3.45;;;19.80;99.90;;;;;;2566335;23;20016;-71
2022/09/05 05:22:23;;;;;;;5.32;3.47;;;19.70;99.90;;;;;;2568055;23;20083;-71
2022/09/05 05:23:38;;;;;;;3.60;3.30;;;19.70;99.90;;;;;;2567148;23;20005;-71
2022/09/05 05:24:50;;;;;;;3.67;3.30;;;19.70;99.90;;;;;;2567680;23;20388;-71
2022/09/05 05:25:56;;;;;;;4.82;3.50;;;19.70;99.90;;;;;;2567785;23;20303;-71
2022/09/05 05:27:14;;;;;;;3.35;2.90;;;19.70;99.90;;;;;;2567928;23;20035;-71
2022/09/05 05:28:48;;;;;;;4.38;3.63;;;19.70;99.90;;;;;;2567806;23;20005;-71
2022/09/05 05:30:10;;;;;;;4.25;3.30;;;19.60;99.90;;;;;;2554791;23;20476;-71
2022/09/05 05:31:36;;;;;;;3.70;3.28;;;19.60;99.90;;;;;;2558894;23;20054;-71
2022/09/05 05:32:41;;;;;;;3.45;3.15;;;19.60;99.90;;;;;;2567569;23;20007;-71
2022/09/05 05:33:47;;;;;;;6.70;3.50;;;19.60;99.90;;;;;;2567225;23;19997;-71
2022/09/05 05:34:54;;;;;;;3.95;3.00;;;19.60;99.90;;;;;;2567679;23;19997;-71
2022/09/05 05:35:59;;;;;;;3.85;3.55;;;19.60;99.90;;;;;;2567587;23;20086;-71
2022/09/05 05:37:32;;;;;;;3.72;3.00;;;19.60;99.90;;;;;;2567848;23;20000;-71
2022/09/05 05:38:47;;;;;;;3.83;3.15;;;19.60;99.90;;;;;;2567869;23;20036;-71
2022/09/05 05:40:09;;;;;;;4.10;3.70;;;19.50;99.90;;;;;;2567975;23;20021;-71
2022/09/05 05:41:25;;;;;;;3.90;3.55;;;19.50;99.90;;;;;;2554148;23;20484;-71
2022/09/05 05:42:25;;;;;;;5.18;3.30;;;19.50;99.90;;;;;;2557914;23;20040;-70
2022/09/05 05:43:35;;;;;;;3.72;3.22;;;19.50;99.90;;;;;;2567106;23;20034;-71
2022/09/05 05:44:37;;;;;;;3.53;3.22;;;19.50;99.90;;;;;;2567890;23;20005;-71
2022/09/05 05:45:38;;;;;;;3.95;3.60;;;19.50;99.90;;;;;;2554629;23;20001;-71
2022/09/05 05:46:43;;;;;;;3.53;3.22;;;19.50;99.90;;;;;;2554589;23;20024;-71
2022/09/05 05:47:50;;;;;;;3.50;3.17;;;19.60;99.90;;;;;;2568253;23;20437;-71
2022/09/05 05:48:53;;;;;;;5.80;3.45;;;19.60;99.90;;;;;;2569348;23;20020;-71
2022/09/05 05:50:22;;;;;;;3.60;3.30;;;19.60;99.90;;;;;;2568866;23;20241;-71
2022/09/05 05:51:52;;;;;;;3.50;3.20;;;19.60;99.90;;;;;;2569027;23;20004;-70
2022/09/05 05:53:02;;;;;;;;;;;19.60;99.90;;;;;;2569234;23;20039;-71
2022/09/05 05:54:08;;;;;;;5.57;3.43;;;19.60;99.90;;;;;;2569177;23;19904;-71
2022/09/05 05:55:30;;;;;;;8.15;3.78;;;19.60;99.90;;;;;;2568994;23;20302;-71
2022/09/05 05:56:54;;;;;;;6.90;3.45;;;19.70;99.90;;;;;;2568341;23;20084;-70
2022/09/05 05:58:09;;;;;;;4.90;3.50;;;19.70;99.90;;;;;;2568924;23;20013;-70
2022/09/05 05:59:14;;;;;;;3.53;3.30;;;19.80;99.90;;;;;;2569135;23;20040;-71
2022/09/05 06:00:22;;;;;;;5.00;3.40;;;19.80;99.90;;;;;;2569243;23;20022;-71
2022/09/05 06:01:44;;;;;;;3.65;3.35;;;19.80;99.90;;;;;;2569554;23;20004;-71
2022/09/05 06:03:11;;;;;;;4.75;4.05;;;19.90;99.90;;;;;;2569148;23;20017;-71
2022/09/05 06:04:33;;;;;;;5.82;3.90;;;20.00;99.90;;;;;;2569529;23;20001;-71
2022/09/05 06:06:15;;;;;;;4.82;3.60;;;20.00;99.90;;;;;;2568974;23;20448;-71
2022/09/05 06:07:36;;;;;;;8.32;3.65;;;20.10;99.90;;;;;;2563359;23;20004;-71
2022/09/05 06:09:01;;;;;;;4.25;3.65;;;20.10;99.90;;;;;;2569553;23;20086;-71
2022/09/05 06:10:43;;;;;;;5.05;4.05;;;20.20;99.90;;;;;;2569947;23;19992;-71
2022/09/05 06:12:25;;;;;;;6.57;3.75;;;20.30;99.90;;;;;;2569517;23;20410;-71
2022/09/05 06:13:54;;;;;;;4.03;3.47;;;20.40;99.90;;;;;;2542458;23;20329;-71
2022/09/05 06:15:24;;;;;;;4.53;4.00;;;20.50;99.90;;;;;;2556027;23;20007;-71
2022/09/05 06:17:09;;;;;;;4.25;3.53;;;20.50;99.90;;;;;;2562057;23;20008;-71
2022/09/05 06:18:31;;;;;;;4.40;3.92;;;20.60;99.90;;;;;;2538363;23;20004;-71
2022/09/05 06:19:51;;;;;;;6.78;4.50;;;20.70;99.90;;;;;;2569120;23;19997;-71
2022/09/05 06:21:07;;;;;;;5.70;4.00;;;20.80;99.90;;;;;;2569573;23;20066;-71
2022/09/05 06:22:32;;;;;;;4.20;3.80;;;20.80;99.90;;;;;;2569368;23;20066;-71
2022/09/05 06:23:54;;;;;;;6.50;3.80;;;20.90;99.90;;;;;;2568915;23;20001;-71
2022/09/05 06:25:24;;;;;;;5.53;3.92;;;21.00;99.90;;;;;;2569300;23;20012;-71
2022/09/05 06:26:48;;;;;;;5.00;3.80;;;21.10;99.90;;;;;;2568989;23;20103;-71
2022/09/05 06:28:14;;;;;;;5.43;3.92;;;21.20;99.90;;;;;;2568703;23;20005;-71
2022/09/05 06:29:40;;;;;;;7.25;4.00;;;21.30;99.90;;;;;;2568989;23;20107;-71
2022/09/05 06:31:02;;;;;;;6.18;3.78;;;21.30;99.90;;;;;;2569417;23;20103;-71
2022/09/05 06:32:14;;;;;;;4.47;3.88;;;21.40;99.90;;;;;;2569381;23;20005;-71
2022/09/05 06:33:19;;;;;;;6.25;3.55;;;21.50;99.90;;;;;;2568913;23;20440;-71
2022/09/05 06:34:31;;;;;;;3.88;3.25;;;21.60;99.90;;;;;;2569312;23;20080;-71
2022/09/05 06:35:34;;;;;;;5.93;3.25;;;21.70;99.90;;;;;;2569439;23;20012;-71
2022/09/05 06:37:00;;;;;;;4.80;3.28;;;21.80;99.90;;;;;;2569192;23;19996;-71
2022/09/05 06:38:23;;;;;;;5.03;3.40;;;21.90;99.90;;;;;;2569473;23;20492;-77
2022/09/05 06:39:48;;;;;;;5.95;3.25;;;22.00;99.90;;;;;;2569228;23;20425;-77
2022/09/05 06:41:14;;;;;;;4.38;3.17;;;22.00;99.90;;;;;;2569977;23;19997;-77
2022/09/05 06:42:40;;;;;;;5.45;3.15;;;22.10;99.90;;;;;;2570254;23;20000;-77
2022/09/05 06:44:14;;;;;;;4.70;2.90;;;22.20;99.90;;;;;;2569863;23;20310;-77
2022/09/05 06:45:34;;;;;;;2.88;2.38;;;22.30;99.90;;;;;;2556908;23;20009;-77
2022/09/05 06:46:35;;;;;;;5.47;3.00;;;22.40;99.90;;;;;;2561120;23;19997;-78
2022/09/05 06:47:39;;;;;;;5.30;3.53;;;22.50;99.90;;;;;;2569970;23;19997;-77
2022/09/05 06:49:16;;;;;;;4.97;3.13;;;22.60;99.90;;;;;;2557339;23;20051;-78